createdAt,value
2023-04-02T00:02:59.913Z,100.00
2023-04-02T00:06:28.077Z,100.00
2023-04-02T00:09:04.630Z,100.00
2023-04-02T00:11:38.938Z,100.00
2023-04-02T00:14:17.321Z,100.00
2023-04-02T00:16:46.168Z,100.00
2023-04-02T00:19:25.071Z,100.00
2023-04-02T00:21:54.189Z,100.00
2023-04-02T00:24:22.836Z,100.00
2023-04-02T00:26:53.184Z,100.00
2023-04-02T00:29:22.015Z,100.00
2023-04-02T00:31:54.574Z,100.00
2023-04-02T00:34:41.872Z,100.00
2023-04-02T00:37:23.979Z,100.00
2023-04-02T00:39:58.826Z,100.00
2023-04-02T00:42:30.657Z,100.00
2023-04-02T00:45:00.136Z,100.00
2023-04-02T00:47:37.661Z,100.00
2023-04-02T00:50:09.250Z,100.00
2023-04-02T00:52:38.455Z,100.00
2023-04-02T00:56:21.905Z,100.00
2023-04-02T00:59:48.700Z,100.00
2023-04-02T01:02:36.975Z,100.00
2023-04-02T01:09:20.339Z,100.00
2023-04-02T01:12:54.730Z,100.00
2023-04-02T01:16:26.061Z,100.00
2023-04-02T01:19:33.189Z,100.00
2023-04-02T01:22:35.362Z,100.00
2023-04-02T01:25:06.611Z,100.00
2023-04-02T01:27:45.743Z,100.00
2023-04-02T01:30:16.084Z,100.00
2023-04-02T01:32:45.806Z,100.00
2023-04-02T01:35:14.515Z,100.00
2023-04-02T01:38:00.496Z,100.00
2023-04-02T01:40:48.673Z,100.00
2023-04-02T01:43:59.041Z,100.00
2023-04-02T01:46:33.361Z,100.00
2023-04-02T01:49:10.044Z,100.00
2023-04-02T01:51:43.486Z,100.00
2023-04-02T01:55:11.758Z,100.00
2023-04-02T01:58:43.029Z,100.00
2023-04-02T02:02:11.453Z,100.00
2023-04-02T02:05:40.556Z,100.00
2023-04-02T02:08:48.944Z,100.00
2023-04-02T02:15:22.541Z,100.00
2023-04-02T02:17:58.111Z,100.00
2023-04-02T02:20:28.408Z,100.00
2023-04-02T02:22:57.897Z,100.00
2023-04-02T02:25:34.991Z,100.00
2023-04-02T02:28:06.487Z,100.00
2023-04-02T02:30:44.184Z,100.00
2023-04-02T02:33:21.901Z,100.00
2023-04-02T02:36:00.934Z,100.00
2023-04-02T02:38:42.370Z,100.00
2023-04-02T02:41:37.979Z,100.00
2023-04-02T02:44:09.518Z,100.00
2023-04-02T02:47:00.289Z,100.00
2023-04-02T02:49:33.916Z,100.00
2023-04-02T02:52:14.536Z,100.00
2023-04-02T02:55:52.013Z,100.00
2023-04-02T02:59:26.807Z,100.00
2023-04-02T03:06:52.768Z,100.00
2023-04-02T03:10:05.740Z,100.00
2023-04-02T03:13:04.197Z,100.00
2023-04-02T03:16:46.632Z,100.00
2023-04-02T03:20:20.671Z,100.00
2023-04-02T03:23:55.157Z,100.00
2023-04-02T03:27:30.188Z,100.00
2023-04-02T03:30:37.272Z,100.00
2023-04-02T03:34:08.920Z,100.00
2023-04-02T03:37:37.156Z,100.00
2023-04-02T03:41:05.355Z,100.00
2023-04-02T03:44:42.144Z,100.00
2023-04-02T03:48:16.464Z,100.00
2023-04-02T03:51:27.918Z,100.00
2023-04-02T03:59:25.100Z,100.00
2023-04-02T04:02:32.487Z,100.00
2023-04-02T04:05:05.495Z,100.00
2023-04-02T04:07:42.914Z,100.00
2023-04-02T04:10:20.621Z,100.00
2023-04-02T04:12:52.216Z,100.00
2023-04-02T04:15:34.561Z,100.00
2023-04-02T04:18:10.630Z,100.00
2023-04-02T04:20:58.880Z,100.00
2023-04-02T04:23:37.344Z,100.00
2023-04-02T04:26:20.135Z,100.00
2023-04-02T04:29:09.844Z,100.00
2023-04-02T04:31:40.932Z,100.00
2023-04-02T04:34:16.498Z,100.00
2023-04-02T04:36:55.919Z,100.00
2023-04-02T04:39:40.894Z,100.00
2023-04-02T04:42:20.639Z,100.00
2023-04-02T04:45:18.829Z,100.00
2023-04-02T04:47:57.217Z,100.00
2023-04-02T04:50:36.814Z,100.00
2023-04-02T04:54:05.958Z,100.00
2023-04-02T04:57:35.371Z,100.00
2023-04-02T05:00:42.564Z,100.00
2023-04-02T05:03:19.806Z,100.00
2023-04-02T05:05:49.137Z,100.00
2023-04-02T05:08:25.965Z,100.00
2023-04-02T05:11:46.994Z,100.00
2023-04-02T05:14:25.292Z,100.00
2023-04-02T05:17:05.784Z,100.00
2023-04-02T05:19:48.129Z,100.00
2023-04-02T05:22:23.709Z,100.00
2023-04-02T05:25:20.111Z,100.00
2023-04-02T05:28:16.265Z,100.00
2023-04-02T05:30:58.458Z,100.00
2023-04-02T05:33:29.851Z,100.00
2023-04-02T05:36:05.094Z,100.00
2023-04-02T05:38:44.412Z,100.00
2023-04-02T05:41:32.403Z,100.00
2023-04-02T05:44:24.760Z,100.00
2023-04-02T05:47:12.624Z,100.00
2023-04-02T05:50:05.942Z,100.00
2023-04-02T05:52:42.992Z,100.00
2023-04-02T05:55:11.766Z,100.00
2023-04-02T05:58:13.544Z,100.00
2023-04-02T06:00:41.072Z,100.00
2023-04-02T06:03:46.535Z,100.00
2023-04-02T06:06:40.080Z,100.00
2023-04-02T06:09:32.761Z,100.00
2023-04-02T06:12:50.813Z,100.00
2023-04-02T06:15:23.220Z,100.00
2023-04-02T06:18:01.636Z,100.00
2023-04-02T06:20:30.839Z,100.00
2023-04-02T06:23:04.193Z,100.00
2023-04-02T06:25:43.821Z,100.00
2023-04-02T06:28:17.672Z,100.00
2023-04-02T06:30:58.299Z,100.00
2023-04-02T06:33:27.316Z,100.00
2023-04-02T06:35:56.484Z,100.00
2023-04-02T06:38:32.791Z,100.00
2023-04-02T06:41:20.417Z,100.00
2023-04-02T06:44:32.460Z,100.00
2023-04-02T06:48:17.853Z,100.00
2023-04-02T06:51:19.994Z,100.00
2023-04-02T06:54:48.311Z,100.00
2023-04-02T06:58:17.454Z,100.00
2023-04-02T07:01:45.979Z,100.00
2023-04-02T07:05:14.635Z,100.00
2023-04-02T07:08:27.024Z,100.00
2023-04-02T07:15:20.013Z,100.00
2023-04-02T07:17:48.867Z,100.00
2023-04-02T07:20:30.841Z,100.00
2023-04-02T07:23:01.529Z,100.00
2023-04-02T07:25:30.262Z,100.00
2023-04-02T07:27:58.780Z,100.00
2023-04-02T07:30:27.453Z,100.00
2023-04-02T07:32:56.373Z,100.00
2023-04-02T07:35:24.895Z,100.00
2023-04-02T07:37:53.274Z,100.00
2023-04-02T07:40:24.299Z,100.00
2023-04-02T07:42:53.036Z,100.00
2023-04-02T07:45:21.638Z,100.00
2023-04-02T07:47:50.071Z,100.00
2023-04-02T07:50:18.692Z,100.00
2023-04-02T07:53:46.976Z,100.00
2023-04-02T07:57:15.312Z,100.00
2023-04-02T07:59:48.191Z,100.00
2023-04-02T08:02:21.698Z,100.00
2023-04-02T08:04:54.051Z,100.00
2023-04-02T08:08:26.471Z,100.00
2023-04-02T08:11:54.708Z,100.00
2023-04-02T08:15:22.905Z,100.00
2023-04-02T08:18:56.158Z,100.00
2023-04-02T08:21:25.748Z,100.00
2023-04-02T08:23:54.363Z,100.00
2023-04-02T08:26:22.807Z,100.00
2023-04-02T08:28:51.378Z,100.00
2023-04-02T08:31:19.903Z,100.00
2023-04-02T08:33:48.554Z,100.00
2023-04-02T08:37:16.992Z,100.00
2023-04-02T08:40:45.236Z,100.00
2023-04-02T08:43:56.354Z,100.00
2023-04-02T08:47:10.774Z,100.00
2023-04-02T08:50:19.289Z,100.00
2023-04-02T08:53:33.358Z,100.00
2023-04-02T08:56:47.481Z,100.00
2023-04-02T08:59:30.891Z,100.00
2023-04-02T09:02:33.146Z,100.00
2023-04-02T09:05:07.246Z,100.00
2023-04-02T09:07:36.098Z,100.00
2023-04-02T09:10:05.133Z,100.00
2023-04-02T09:12:33.542Z,99.97
2023-04-02T09:15:18.714Z,100.00
2023-04-02T09:17:54.178Z,100.00
2023-04-02T09:20:27.927Z,99.19
2023-04-02T09:22:57.485Z,98.30
2023-04-02T09:25:31.683Z,98.91
2023-04-02T09:28:05.980Z,99.45
2023-04-02T09:30:52.550Z,99.29
2023-04-02T09:33:51.244Z,100.00
2023-04-02T09:36:33.498Z,99.17
2023-04-02T09:39:07.205Z,98.94
2023-04-02T09:41:37.198Z,98.86
2023-04-02T09:44:26.114Z,98.72
2023-04-02T09:47:04.253Z,99.28
2023-04-02T09:49:36.364Z,98.96
2023-04-02T09:52:18.279Z,98.94
2023-04-02T09:55:35.790Z,99.05
2023-04-02T09:59:12.961Z,99.33
2023-04-02T10:02:41.256Z,99.64
2023-04-02T10:10:20.641Z,99.63
2023-04-02T10:13:57.322Z,99.92
2023-04-02T10:21:25.986Z,99.51
2023-04-02T10:23:55.856Z,99.41
2023-04-02T10:26:45.659Z,99.05
2023-04-02T10:29:42.224Z,98.87
2023-04-02T10:32:19.632Z,99.84
2023-04-02T10:34:58.945Z,99.86
2023-04-02T10:37:46.012Z,99.38
2023-04-02T10:40:39.554Z,99.28
2023-04-02T10:43:36.560Z,99.37
2023-04-02T10:46:26.583Z,99.12
2023-04-02T10:49:08.550Z,98.56
2023-04-02T10:51:58.232Z,98.31
2023-04-02T10:54:38.107Z,97.86
2023-04-02T10:57:39.566Z,98.22
2023-04-02T11:00:28.038Z,97.85
2023-04-02T11:02:59.382Z,98.04
2023-04-02T11:05:49.953Z,98.90
2023-04-02T11:08:30.033Z,99.43
2023-04-02T11:11:05.679Z,99.39
2023-04-02T11:13:55.567Z,98.93
2023-04-02T11:16:25.299Z,98.91
2023-04-02T11:19:22.670Z,99.00
2023-04-02T11:22:03.178Z,99.90
2023-04-02T11:24:44.390Z,99.71
2023-04-02T11:27:14.731Z,100.00
2023-04-02T11:29:52.544Z,100.00
2023-04-02T11:32:20.884Z,100.00
2023-04-02T11:35:03.118Z,100.00
2023-04-02T11:37:43.656Z,100.00
2023-04-02T11:40:12.289Z,100.00
2023-04-02T11:42:42.813Z,100.00
2023-04-02T11:45:35.593Z,99.97
2023-04-02T11:48:17.823Z,99.10
2023-04-02T11:50:46.844Z,99.85
2023-04-02T11:53:21.328Z,100.00
2023-04-02T11:56:09.726Z,100.00
2023-04-02T11:59:12.269Z,100.00
2023-04-02T12:02:18.229Z,100.00
2023-04-02T12:04:56.633Z,100.00
2023-04-02T12:07:57.073Z,99.32
2023-04-02T12:10:49.177Z,98.60
2023-04-02T12:13:22.121Z,97.56
2023-04-02T12:15:52.802Z,95.51
2023-04-02T12:18:24.098Z,95.89
2023-04-02T12:20:56.087Z,94.95
2023-04-02T12:23:31.865Z,93.13
2023-04-02T12:26:09.537Z,92.26
2023-04-02T12:28:42.535Z,89.55
2023-04-02T12:31:18.952Z,89.19
2023-04-02T12:33:52.722Z,85.57
2023-04-02T12:36:23.797Z,85.62
2023-04-02T12:38:58.493Z,83.61
2023-04-02T12:41:32.487Z,80.17
2023-04-02T12:44:07.517Z,82.65
2023-04-02T12:46:36.464Z,81.24
2023-04-02T12:49:08.096Z,81.10
2023-04-02T12:51:37.626Z,75.82
2023-04-02T12:54:06.524Z,78.92
2023-04-02T12:56:35.313Z,79.47
2023-04-02T12:59:04.013Z,78.28
2023-04-02T13:01:34.080Z,74.49
2023-04-02T13:04:07.851Z,75.45
2023-04-02T13:06:37.226Z,75.76
2023-04-02T13:09:27.368Z,75.08
2023-04-02T13:11:57.594Z,75.78
2023-04-02T13:14:26.842Z,76.64
2023-04-02T13:16:55.899Z,73.58
2023-04-02T13:19:33.604Z,72.74
2023-04-02T13:22:04.496Z,70.36
2023-04-02T13:24:33.653Z,72.57
2023-04-02T13:27:04.432Z,72.10
2023-04-02T13:29:35.334Z,70.89
2023-04-02T13:32:08.080Z,68.73
2023-04-02T13:34:36.788Z,70.27
2023-04-02T13:37:05.499Z,64.37
2023-04-02T13:39:33.885Z,64.21
2023-04-02T13:42:04.631Z,64.76
2023-04-02T13:44:37.804Z,63.85
2023-04-02T13:47:06.509Z,62.64
2023-04-02T13:49:35.184Z,62.44
2023-04-02T13:52:05.341Z,61.52
2023-04-02T13:54:40.807Z,60.78
2023-04-02T13:57:09.843Z,58.12
2023-04-02T13:59:38.330Z,58.07
2023-04-02T14:02:10.689Z,56.21
2023-04-02T14:04:43.726Z,54.42
2023-04-02T14:07:17.927Z,53.66
2023-04-02T14:09:55.734Z,51.94
2023-04-02T14:12:55.574Z,50.98
2023-04-02T14:15:47.799Z,47.33
2023-04-02T14:18:26.063Z,46.33
2023-04-02T14:21:22.325Z,47.13
2023-04-02T14:24:13.105Z,46.26
2023-04-02T14:26:44.066Z,46.72
2023-04-02T14:29:31.258Z,46.40
2023-04-02T14:32:24.164Z,45.53
2023-04-02T14:35:04.962Z,44.86
2023-04-02T14:37:47.746Z,45.03
2023-04-02T14:40:22.086Z,44.24
2023-04-02T14:43:01.513Z,42.75
2023-04-02T14:45:38.991Z,40.46
2023-04-02T14:48:12.673Z,40.98
2023-04-02T14:50:42.995Z,40.37
2023-04-02T14:53:24.218Z,41.28
2023-04-02T14:55:54.550Z,39.58
2023-04-02T14:58:29.000Z,38.13
2023-04-02T15:01:03.917Z,38.07
2023-04-02T15:03:44.355Z,38.96
2023-04-02T15:06:21.525Z,38.63
2023-04-02T15:09:08.374Z,40.36
2023-04-02T15:12:00.791Z,42.56
2023-04-02T15:14:35.687Z,43.82
2023-04-02T15:17:04.355Z,44.59
2023-04-02T15:19:32.737Z,45.90
2023-04-02T15:22:31.951Z,47.24
2023-04-02T15:25:06.938Z,48.86
2023-04-02T15:28:09.445Z,49.40
2023-04-02T15:30:42.579Z,49.64
2023-04-02T15:33:43.754Z,50.66
2023-04-02T15:36:20.057Z,52.48
2023-04-02T15:38:57.441Z,54.94
2023-04-02T15:41:27.663Z,56.56
2023-04-02T15:44:15.239Z,56.87
2023-04-02T15:46:44.008Z,58.48
2023-04-02T15:49:23.883Z,60.62
2023-04-02T15:52:10.615Z,61.37
2023-04-02T15:54:59.078Z,60.62
2023-04-02T15:57:54.730Z,61.05
2023-04-02T16:00:27.965Z,62.65
2023-04-02T16:03:11.596Z,64.17
2023-04-02T16:06:04.824Z,65.04
2023-04-02T16:08:54.547Z,67.03
2023-04-02T16:11:24.572Z,68.71
2023-04-02T16:14:01.250Z,68.74
2023-04-02T16:16:36.331Z,70.38
2023-04-02T16:19:32.569Z,73.08
2023-04-02T16:22:29.643Z,72.30
2023-04-02T16:25:03.495Z,70.86
2023-04-02T16:27:37.775Z,69.44
2023-04-02T16:30:22.636Z,69.86
2023-04-02T16:33:09.157Z,70.47
2023-04-02T16:36:15.573Z,69.62
2023-04-02T16:38:59.192Z,69.22
2023-04-02T16:41:44.562Z,69.50
2023-04-02T16:44:31.784Z,69.95
2023-04-02T16:47:29.990Z,70.66
2023-04-02T16:50:29.623Z,72.34
2023-04-02T16:53:17.515Z,74.79
2023-04-02T16:56:16.989Z,76.19
2023-04-02T16:59:20.513Z,77.58
2023-04-02T17:02:20.707Z,78.44
2023-04-02T17:04:58.817Z,79.73
2023-04-02T17:07:34.756Z,79.89
2023-04-02T17:10:03.246Z,81.08
2023-04-02T17:12:34.378Z,81.79
2023-04-02T17:15:27.735Z,83.47
2023-04-02T17:17:59.066Z,83.70
2023-04-02T17:20:28.524Z,82.73
2023-04-02T17:22:57.424Z,83.36
2023-04-02T17:25:30.535Z,83.58
2023-04-02T17:27:58.892Z,83.18
2023-04-02T17:30:41.451Z,83.42
2023-04-02T17:33:18.788Z,85.14
2023-04-02T17:36:00.199Z,87.57
2023-04-02T17:38:34.378Z,88.12
2023-04-02T17:41:32.565Z,87.58
2023-04-02T17:44:20.233Z,86.66
2023-04-02T17:47:19.738Z,86.09
2023-04-02T17:50:21.579Z,85.31
2023-04-02T17:53:09.341Z,85.18
2023-04-02T17:56:02.124Z,85.13
2023-04-02T17:59:13.596Z,84.22
2023-04-02T18:01:55.324Z,84.63
2023-04-02T18:04:44.781Z,82.74
2023-04-02T18:07:29.059Z,81.49
2023-04-02T18:10:20.361Z,82.47
2023-04-02T18:13:17.153Z,84.33
2023-04-02T18:15:53.823Z,86.95
2023-04-02T18:18:40.072Z,90.72
2023-04-02T18:21:14.681Z,91.28
2023-04-02T18:24:13.484Z,91.36
2023-04-02T18:26:52.960Z,90.06
2023-04-02T18:29:31.476Z,90.16
2023-04-02T18:32:34.013Z,91.45
2023-04-02T18:35:20.873Z,92.13
2023-04-02T18:38:22.111Z,91.83
2023-04-02T18:41:08.384Z,90.13
2023-04-02T18:43:51.125Z,89.47
2023-04-02T18:46:30.057Z,88.97
2023-04-02T18:49:01.461Z,88.34
2023-04-02T18:51:35.741Z,88.41
2023-04-02T18:54:28.953Z,89.78
2023-04-02T18:56:57.426Z,90.45
2023-04-02T18:59:31.865Z,90.52
2023-04-02T19:02:32.956Z,90.92
2023-04-02T19:05:19.288Z,92.29
2023-04-02T19:07:53.724Z,93.42
2023-04-02T19:10:33.963Z,93.72
2023-04-02T19:13:02.457Z,93.13
2023-04-02T19:16:03.222Z,92.54
2023-04-02T19:18:57.372Z,91.86
2023-04-02T19:21:38.202Z,92.66
2023-04-02T19:24:41.544Z,92.00
2023-04-02T19:27:27.365Z,91.81
2023-04-02T19:30:29.678Z,91.84
2023-04-02T19:33:17.020Z,91.99
2023-04-02T19:35:56.392Z,91.79
2023-04-02T19:38:48.928Z,91.65
2023-04-02T19:41:52.365Z,93.65
2023-04-02T19:44:21.971Z,92.78
2023-04-02T19:46:51.756Z,92.19
2023-04-02T19:49:34.912Z,91.32
2023-04-02T19:52:03.453Z,90.96
2023-04-02T19:54:31.902Z,90.59
2023-04-02T19:57:01.363Z,90.43
2023-04-02T19:59:31.314Z,90.41
2023-04-02T20:01:59.771Z,90.43
2023-04-02T20:04:28.212Z,90.23
2023-04-02T20:06:56.646Z,89.80
2023-04-02T20:09:25.254Z,89.59
2023-04-02T20:11:53.689Z,89.42
2023-04-02T20:14:22.156Z,89.43
2023-04-02T20:16:50.814Z,89.44
2023-04-02T20:19:20.434Z,89.54
2023-04-02T20:21:48.767Z,90.02
2023-04-02T20:24:17.055Z,90.09
2023-04-02T20:26:45.722Z,90.29
2023-04-02T20:29:14.365Z,90.28
2023-04-02T20:31:42.775Z,90.44
2023-04-02T20:34:11.637Z,90.22
2023-04-02T20:36:40.146Z,90.29
2023-04-02T20:39:09.308Z,90.38
2023-04-02T20:41:38.259Z,90.45
2023-04-02T20:44:07.164Z,91.41
2023-04-02T20:46:35.712Z,90.88
2023-04-02T20:49:04.389Z,91.33
2023-04-02T20:51:32.889Z,91.56
2023-04-02T20:54:01.486Z,91.59
2023-04-02T20:56:29.899Z,91.32
2023-04-02T20:58:58.245Z,90.92
2023-04-02T21:01:28.955Z,90.98
2023-04-02T21:04:00.580Z,91.30
2023-04-02T21:06:32.230Z,91.06
2023-04-02T21:09:01.966Z,91.29
2023-04-02T21:11:30.643Z,91.23
2023-04-02T21:13:59.128Z,91.14
2023-04-02T21:16:31.758Z,91.36
2023-04-02T21:19:02.944Z,90.90
2023-04-02T21:21:31.734Z,90.78
2023-04-02T21:24:03.007Z,90.89
2023-04-02T21:26:34.774Z,90.89
2023-04-02T21:29:04.033Z,91.39
2023-04-02T21:31:37.955Z,91.97
2023-04-02T21:34:08.589Z,92.39
2023-04-02T21:36:40.901Z,92.81
2023-04-02T21:39:13.371Z,92.22
2023-04-02T21:41:45.048Z,92.79
2023-04-02T21:44:15.568Z,92.91
2023-04-02T21:46:44.846Z,93.51
2023-04-02T21:49:15.947Z,94.21
2023-04-02T21:51:46.519Z,94.22
2023-04-02T21:54:16.207Z,94.49
2023-04-02T21:56:46.883Z,93.54
2023-04-02T21:59:17.590Z,93.01
2023-04-02T22:01:50.900Z,92.95
2023-04-02T22:04:21.916Z,93.50
2023-04-02T22:06:52.335Z,93.78
2023-04-02T22:09:27.307Z,93.76
2023-04-02T22:12:01.997Z,93.61
2023-04-02T22:14:31.030Z,93.48
2023-04-02T22:16:59.776Z,93.59
2023-04-02T22:19:28.387Z,93.97
2023-04-02T22:21:57.033Z,94.92
2023-04-02T22:24:25.809Z,95.90
2023-04-02T22:26:54.373Z,95.81
2023-04-02T22:29:22.778Z,95.48
2023-04-02T22:31:51.229Z,95.82
2023-04-02T22:34:19.913Z,95.67
2023-04-02T22:36:48.350Z,96.34
2023-04-02T22:39:17.214Z,95.99
2023-04-02T22:41:45.528Z,95.61
2023-04-02T22:44:15.523Z,95.02
2023-04-02T22:46:44.210Z,94.92
2023-04-02T22:49:12.844Z,95.20
2023-04-02T22:51:41.416Z,96.15
2023-04-02T22:54:10.091Z,95.76
2023-04-02T22:56:38.625Z,96.54
2023-04-02T22:59:07.004Z,97.04
2023-04-02T23:01:36.475Z,97.01
2023-04-02T23:04:05.559Z,96.83
2023-04-02T23:06:34.127Z,96.57
2023-04-02T23:09:02.639Z,95.83
2023-04-02T23:11:31.293Z,95.81
2023-04-02T23:13:59.696Z,98.00
2023-04-02T23:16:29.350Z,99.62
2023-04-02T23:18:58.597Z,99.13
2023-04-02T23:21:27.897Z,99.84
2023-04-02T23:23:56.432Z,100.00
2023-04-02T23:26:30.922Z,99.78
2023-04-02T23:29:00.247Z,99.09
2023-04-02T23:31:28.804Z,99.56
2023-04-02T23:33:57.308Z,99.39
2023-04-02T23:36:31.207Z,100.00
2023-04-02T23:39:02.435Z,100.00
2023-04-02T23:41:31.662Z,100.00
2023-04-02T23:44:00.284Z,100.00
2023-04-02T23:46:30.425Z,100.00
2023-04-02T23:49:00.249Z,100.00
2023-04-02T23:51:31.439Z,100.00
2023-04-02T23:54:00.413Z,100.00
2023-04-02T23:56:28.840Z,100.00
2023-04-02T23:58:57.562Z,100.00
